sensor_id;sensor_type;location;lat;lon;timestamp;temperature;humidity
80937;DHT22;70395;51.382;7.074;2024-02-16T00:00:29;16.20;55.60
80937;DHT22;70395;51.382;7.074;2024-02-16T00:02:56;16.20;55.60
80937;DHT22;70395;51.382;7.074;2024-02-16T00:05:22;16.20;55.50
80937;DHT22;70395;51.382;7.074;2024-02-16T00:07:48;16.30;55.60
80937;DHT22;70395;51.382;7.074;2024-02-16T00:10:14;16.30;55.70
80937;DHT22;70395;51.382;7.074;2024-02-16T00:12:44;16.30;55.60
80937;DHT22;70395;51.382;7.074;2024-02-16T00:15:10;16.30;55.60
80937;DHT22;70395;51.382;7.074;2024-02-16T00:17:36;16.30;55.40
80937;DHT22;70395;51.382;7.074;2024-02-16T00:20:03;16.30;55.30
80937;DHT22;70395;51.382;7.074;2024-02-16T00:22:29;16.30;55.40
80937;DHT22;70395;51.382;7.074;2024-02-16T00:24:55;16.30;55.20
80937;DHT22;70395;51.382;7.074;2024-02-16T00:27:21;16.30;55.20
80937;DHT22;70395;51.382;7.074;2024-02-16T00:29:47;16.30;55.10
80937;DHT22;70395;51.382;7.074;2024-02-16T00:32:13;16.30;55.20
80937;DHT22;70395;51.382;7.074;2024-02-16T00:34:40;16.30;55.10
80937;DHT22;70395;51.382;7.074;2024-02-16T00:37:07;16.30;55.10
80937;DHT22;70395;51.382;7.074;2024-02-16T00:39:40;16.30;55.00
80937;DHT22;70395;51.382;7.074;2024-02-16T00:42:06;16.40;54.90
80937;DHT22;70395;51.382;7.074;2024-02-16T00:44:32;16.40;55.00
80937;DHT22;70395;51.382;7.074;2024-02-16T00:46:58;16.40;54.90
80937;DHT22;70395;51.382;7.074;2024-02-16T00:49:24;16.40;55.00
80937;DHT22;70395;51.382;7.074;2024-02-16T00:51:50;16.40;54.90
80937;DHT22;70395;51.382;7.074;2024-02-16T00:54:17;16.50;55.10
80937;DHT22;70395;51.382;7.074;2024-02-16T00:56:43;16.50;55.10
80937;DHT22;70395;51.382;7.074;2024-02-16T00:59:09;16.50;54.90
80937;DHT22;70395;51.382;7.074;2024-02-16T01:01:35;16.50;54.90
80937;DHT22;70395;51.382;7.074;2024-02-16T01:04:02;16.50;54.80
80937;DHT22;70395;51.382;7.074;2024-02-16T01:06:28;16.50;54.70
80937;DHT22;70395;51.382;7.074;2024-02-16T01:08:54;16.50;54.70
80937;DHT22;70395;51.382;7.074;2024-02-16T01:11:21;16.60;54.90
80937;DHT22;70395;51.382;7.074;2024-02-16T01:13:47;16.60;54.90
80937;DHT22;70395;51.382;7.074;2024-02-16T01:16:12;16.60;54.80
80937;DHT22;70395;51.382;7.074;2024-02-16T01:18:39;16.50;54.60
80937;DHT22;70395;51.382;7.074;2024-02-16T01:21:05;16.60;54.90
80937;DHT22;70395;51.382;7.074;2024-02-16T01:23:31;16.50;54.80
80937;DHT22;70395;51.382;7.074;2024-02-16T01:25:58;16.50;54.80
80937;DHT22;70395;51.382;7.074;2024-02-16T01:28:24;16.50;54.80
80937;DHT22;70395;51.382;7.074;2024-02-16T01:30:50;16.60;55.00
80937;DHT22;70395;51.382;7.074;2024-02-16T01:33:16;16.50;55.40
80937;DHT22;70395;51.382;7.074;2024-02-16T01:35:42;16.50;54.90
80937;DHT22;70395;51.382;7.074;2024-02-16T01:38:07;16.50;54.80
80937;DHT22;70395;51.382;7.074;2024-02-16T01:40:33;16.50;54.80
80937;DHT22;70395;51.382;7.074;2024-02-16T01:42:59;16.50;54.80
80937;DHT22;70395;51.382;7.074;2024-02-16T01:45:25;16.50;54.80
80937;DHT22;70395;51.382;7.074;2024-02-16T01:47:51;16.50;54.80
80937;DHT22;70395;51.382;7.074;2024-02-16T01:50:19;16.50;54.80
80937;DHT22;70395;51.382;7.074;2024-02-16T01:52:47;16.50;54.80
80937;DHT22;70395;51.382;7.074;2024-02-16T01:55:15;16.50;54.90
80937;DHT22;70395;51.382;7.074;2024-02-16T01:57:46;16.50;54.80
80937;DHT22;70395;51.382;7.074;2024-02-16T02:00:13;16.50;54.90
80937;DHT22;70395;51.382;7.074;2024-02-16T02:02:46;16.50;54.90
80937;DHT22;70395;51.382;7.074;2024-02-16T02:05:13;16.50;54.80
80937;DHT22;70395;51.382;7.074;2024-02-16T02:07:40;16.60;54.80
80937;DHT22;70395;51.382;7.074;2024-02-16T02:10:07;16.60;55.10
80937;DHT22;70395;51.382;7.074;2024-02-16T02:12:34;16.50;55.00
80937;DHT22;70395;51.382;7.074;2024-02-16T02:15:00;16.50;54.80
80937;DHT22;70395;51.382;7.074;2024-02-16T02:17:26;16.50;54.80
80937;DHT22;70395;51.382;7.074;2024-02-16T02:19:51;16.50;54.70
80937;DHT22;70395;51.382;7.074;2024-02-16T02:22:19;16.50;54.80
80937;DHT22;70395;51.382;7.074;2024-02-16T02:24:45;16.50;54.80
80937;DHT22;70395;51.382;7.074;2024-02-16T02:27:12;16.50;54.80
80937;DHT22;70395;51.382;7.074;2024-02-16T02:29:39;16.50;54.60
80937;DHT22;70395;51.382;7.074;2024-02-16T02:32:07;16.60;54.70
80937;DHT22;70395;51.382;7.074;2024-02-16T02:34:33;16.60;54.70
80937;DHT22;70395;51.382;7.074;2024-02-16T02:36:59;16.60;54.80
80937;DHT22;70395;51.382;7.074;2024-02-16T02:39:25;16.60;54.60
80937;DHT22;70395;51.382;7.074;2024-02-16T02:41:51;16.60;54.50
80937;DHT22;70395;51.382;7.074;2024-02-16T02:44:18;16.70;54.60
80937;DHT22;70395;51.382;7.074;2024-02-16T02:46:47;16.60;54.70
80937;DHT22;70395;51.382;7.074;2024-02-16T02:49:12;16.70;54.80
80937;DHT22;70395;51.382;7.074;2024-02-16T02:51:38;16.60;54.70
80937;DHT22;70395;51.382;7.074;2024-02-16T02:54:04;16.70;54.70
80937;DHT22;70395;51.382;7.074;2024-02-16T02:56:30;16.70;54.50
80937;DHT22;70395;51.382;7.074;2024-02-16T02:58:56;16.70;54.50
80937;DHT22;70395;51.382;7.074;2024-02-16T03:01:21;16.60;54.50
80937;DHT22;70395;51.382;7.074;2024-02-16T03:03:48;16.70;54.50
80937;DHT22;70395;51.382;7.074;2024-02-16T03:06:20;16.70;54.50
80937;DHT22;70395;51.382;7.074;2024-02-16T03:08:47;16.70;54.60
80937;DHT22;70395;51.382;7.074;2024-02-16T03:11:12;16.70;54.60
80937;DHT22;70395;51.382;7.074;2024-02-16T03:13:38;16.60;54.60
80937;DHT22;70395;51.382;7.074;2024-02-16T03:16:05;16.70;54.60
80937;DHT22;70395;51.382;7.074;2024-02-16T03:18:32;16.60;54.70
80937;DHT22;70395;51.382;7.074;2024-02-16T03:21:00;16.60;54.70
80937;DHT22;70395;51.382;7.074;2024-02-16T03:23:26;16.60;54.70
80937;DHT22;70395;51.382;7.074;2024-02-16T03:25:51;16.60;54.80
80937;DHT22;70395;51.382;7.074;2024-02-16T03:28:17;16.60;54.80
80937;DHT22;70395;51.382;7.074;2024-02-16T03:30:44;16.60;55.00
80937;DHT22;70395;51.382;7.074;2024-02-16T03:33:10;16.60;54.90
80937;DHT22;70395;51.382;7.074;2024-02-16T03:35:36;16.60;54.90
80937;DHT22;70395;51.382;7.074;2024-02-16T03:38:03;16.60;55.00
80937;DHT22;70395;51.382;7.074;2024-02-16T03:40:29;16.50;54.90
80937;DHT22;70395;51.382;7.074;2024-02-16T03:42:55;16.50;55.10
80937;DHT22;70395;51.382;7.074;2024-02-16T03:45:22;16.40;55.00
80937;DHT22;70395;51.382;7.074;2024-02-16T03:47:49;16.40;55.20
80937;DHT22;70395;51.382;7.074;2024-02-16T03:50:18;16.40;55.40
80937;DHT22;70395;51.382;7.074;2024-02-16T03:52:44;16.40;55.50
80937;DHT22;70395;51.382;7.074;2024-02-16T03:55:10;16.30;55.50
80937;DHT22;70395;51.382;7.074;2024-02-16T03:57:37;16.30;55.60
80937;DHT22;70395;51.382;7.074;2024-02-16T04:00:04;16.30;55.70
80937;DHT22;70395;51.382;7.074;2024-02-16T04:02:31;16.30;55.70
80937;DHT22;70395;51.382;7.074;2024-02-16T04:04:58;16.30;55.90
80937;DHT22;70395;51.382;7.074;2024-02-16T04:07:23;16.20;55.80
80937;DHT22;70395;51.382;7.074;2024-02-16T04:09:49;16.20;55.90
80937;DHT22;70395;51.382;7.074;2024-02-16T04:12:15;16.20;56.00
80937;DHT22;70395;51.382;7.074;2024-02-16T04:14:41;16.30;56.00
80937;DHT22;70395;51.382;7.074;2024-02-16T04:17:09;16.30;56.00
80937;DHT22;70395;51.382;7.074;2024-02-16T04:19:37;16.30;56.00
80937;DHT22;70395;51.382;7.074;2024-02-16T04:22:03;16.30;56.00
80937;DHT22;70395;51.382;7.074;2024-02-16T04:24:29;16.30;56.00
80937;DHT22;70395;51.382;7.074;2024-02-16T04:26:55;16.30;56.10
80937;DHT22;70395;51.382;7.074;2024-02-16T04:29:21;16.30;56.10
80937;DHT22;70395;51.382;7.074;2024-02-16T04:31:46;16.30;56.10
80937;DHT22;70395;51.382;7.074;2024-02-16T04:34:13;16.30;56.10
80937;DHT22;70395;51.382;7.074;2024-02-16T04:36:40;16.30;56.10
80937;DHT22;70395;51.382;7.074;2024-02-16T04:39:06;16.30;56.10
80937;DHT22;70395;51.382;7.074;2024-02-16T04:41:32;16.30;56.20
80937;DHT22;70395;51.382;7.074;2024-02-16T04:43:58;16.30;56.10
80937;DHT22;70395;51.382;7.074;2024-02-16T04:46:24;16.40;56.20
80937;DHT22;70395;51.382;7.074;2024-02-16T04:48:50;16.40;56.30
80937;DHT22;70395;51.382;7.074;2024-02-16T04:51:15;16.40;56.30
80937;DHT22;70395;51.382;7.074;2024-02-16T04:53:41;16.40;56.90
80937;DHT22;70395;51.382;7.074;2024-02-16T04:56:07;16.40;56.40
80937;DHT22;70395;51.382;7.074;2024-02-16T04:58:33;16.40;56.40
80937;DHT22;70395;51.382;7.074;2024-02-16T05:00:59;16.40;56.40
80937;DHT22;70395;51.382;7.074;2024-02-16T05:03:25;16.30;56.40
80937;DHT22;70395;51.382;7.074;2024-02-16T05:05:51;16.40;56.50
80937;DHT22;70395;51.382;7.074;2024-02-16T05:08:17;16.30;56.50
80937;DHT22;70395;51.382;7.074;2024-02-16T05:10:43;16.40;56.70
80937;DHT22;70395;51.382;7.074;2024-02-16T05:13:09;16.30;56.70
80937;DHT22;70395;51.382;7.074;2024-02-16T05:15:37;16.30;56.80
80937;DHT22;70395;51.382;7.074;2024-02-16T05:18:02;16.30;56.80
80937;DHT22;70395;51.382;7.074;2024-02-16T05:20:28;16.30;56.90
80937;DHT22;70395;51.382;7.074;2024-02-16T05:22:54;16.20;57.00
80937;DHT22;70395;51.382;7.074;2024-02-16T05:25:20;16.20;57.20
80937;DHT22;70395;51.382;7.074;2024-02-16T05:27:46;16.20;57.40
80937;DHT22;70395;51.382;7.074;2024-02-16T05:30:14;16.20;57.40
80937;DHT22;70395;51.382;7.074;2024-02-16T05:32:42;16.20;57.50
80937;DHT22;70395;51.382;7.074;2024-02-16T05:35:08;16.20;57.70
80937;DHT22;70395;51.382;7.074;2024-02-16T05:37:40;16.10;57.70
80937;DHT22;70395;51.382;7.074;2024-02-16T05:40:13;16.10;57.80
80937;DHT22;70395;51.382;7.074;2024-02-16T05:42:47;16.20;57.90
80937;DHT22;70395;51.382;7.074;2024-02-16T05:45:14;16.10;57.90
80937;DHT22;70395;51.382;7.074;2024-02-16T05:47:45;16.20;58.00
80937;DHT22;70395;51.382;7.074;2024-02-16T05:50:14;16.20;58.10
80937;DHT22;70395;51.382;7.074;2024-02-16T05:52:41;16.10;58.00
80937;DHT22;70395;51.382;7.074;2024-02-16T05:55:09;16.10;58.10
80937;DHT22;70395;51.382;7.074;2024-02-16T05:57:36;16.10;58.10
80937;DHT22;70395;51.382;7.074;2024-02-16T06:00:06;16.10;58.20
80937;DHT22;70395;51.382;7.074;2024-02-16T06:02:34;16.10;58.30
80937;DHT22;70395;51.382;7.074;2024-02-16T06:05:01;16.10;58.20
80937;DHT22;70395;51.382;7.074;2024-02-16T06:07:31;16.10;58.20
80937;DHT22;70395;51.382;7.074;2024-02-16T06:09:57;16.10;58.30
80937;DHT22;70395;51.382;7.074;2024-02-16T06:12:23;16.10;58.30
80937;DHT22;70395;51.382;7.074;2024-02-16T06:14:50;16.10;58.20
80937;DHT22;70395;51.382;7.074;2024-02-16T06:17:16;16.10;58.30
80937;DHT22;70395;51.382;7.074;2024-02-16T06:19:42;16.10;58.30
80937;DHT22;70395;51.382;7.074;2024-02-16T06:22:09;16.10;58.40
80937;DHT22;70395;51.382;7.074;2024-02-16T06:24:36;16.10;58.40
80937;DHT22;70395;51.382;7.074;2024-02-16T06:27:03;16.00;58.50
80937;DHT22;70395;51.382;7.074;2024-02-16T06:29:30;16.00;58.60
80937;DHT22;70395;51.382;7.074;2024-02-16T06:31:56;16.00;58.60
80937;DHT22;70395;51.382;7.074;2024-02-16T06:34:22;16.00;58.60
80937;DHT22;70395;51.382;7.074;2024-02-16T06:36:48;16.00;58.60
80937;DHT22;70395;51.382;7.074;2024-02-16T06:39:15;16.10;58.60
80937;DHT22;70395;51.382;7.074;2024-02-16T06:41:44;16.00;58.70
80937;DHT22;70395;51.382;7.074;2024-02-16T06:44:14;16.10;58.70
80937;DHT22;70395;51.382;7.074;2024-02-16T06:46:41;16.10;58.60
80937;DHT22;70395;51.382;7.074;2024-02-16T06:49:07;16.10;58.50
80937;DHT22;70395;51.382;7.074;2024-02-16T06:51:33;16.10;58.50
80937;DHT22;70395;51.382;7.074;2024-02-16T06:53:59;16.10;58.50
80937;DHT22;70395;51.382;7.074;2024-02-16T06:56:26;16.20;58.50
80937;DHT22;70395;51.382;7.074;2024-02-16T06:58:52;16.10;58.30
80937;DHT22;70395;51.382;7.074;2024-02-16T07:01:18;16.20;58.40
80937;DHT22;70395;51.382;7.074;2024-02-16T07:03:44;16.10;58.30
80937;DHT22;70395;51.382;7.074;2024-02-16T07:06:10;16.10;58.40
80937;DHT22;70395;51.382;7.074;2024-02-16T07:08:39;16.10;58.50
80937;DHT22;70395;51.382;7.074;2024-02-16T07:11:06;16.10;58.50
80937;DHT22;70395;51.382;7.074;2024-02-16T07:13:36;16.10;58.60
80937;DHT22;70395;51.382;7.074;2024-02-16T07:16:03;16.10;58.60
80937;DHT22;70395;51.382;7.074;2024-02-16T07:18:30;16.10;58.60
80937;DHT22;70395;51.382;7.074;2024-02-16T07:20:56;16.10;58.50
80937;DHT22;70395;51.382;7.074;2024-02-16T07:23:22;16.10;58.50
80937;DHT22;70395;51.382;7.074;2024-02-16T07:25:48;16.20;58.60
80937;DHT22;70395;51.382;7.074;2024-02-16T07:28:14;16.20;59.00
80937;DHT22;70395;51.382;7.074;2024-02-16T07:30:40;16.20;58.30
80937;DHT22;70395;51.382;7.074;2024-02-16T07:33:07;16.20;58.30
80937;DHT22;70395;51.382;7.074;2024-02-16T07:35:36;16.30;58.30
80937;DHT22;70395;51.382;7.074;2024-02-16T07:38:04;16.30;58.00
80937;DHT22;70395;51.382;7.074;2024-02-16T07:40:30;16.30;58.10
80937;DHT22;70395;51.382;7.074;2024-02-16T07:42:57;16.40;58.00
80937;DHT22;70395;51.382;7.074;2024-02-16T07:45:23;16.40;57.90
80937;DHT22;70395;51.382;7.074;2024-02-16T07:47:50;16.50;57.90
80937;DHT22;70395;51.382;7.074;2024-02-16T07:50:20;16.50;57.70
80937;DHT22;70395;51.382;7.074;2024-02-16T07:52:47;16.50;57.50
80937;DHT22;70395;51.382;7.074;2024-02-16T07:55:14;16.60;57.50
80937;DHT22;70395;51.382;7.074;2024-02-16T07:57:43;16.60;57.50
80937;DHT22;70395;51.382;7.074;2024-02-16T08:00:11;16.70;57.40
80937;DHT22;70395;51.382;7.074;2024-02-16T08:02:37;16.70;57.30
80937;DHT22;70395;51.382;7.074;2024-02-16T08:05:04;16.80;57.20
80937;DHT22;70395;51.382;7.074;2024-02-16T08:07:31;16.90;57.20
80937;DHT22;70395;51.382;7.074;2024-02-16T08:09:57;16.90;57.20
80937;DHT22;70395;51.382;7.074;2024-02-16T08:12:23;16.90;57.10
80937;DHT22;70395;51.382;7.074;2024-02-16T08:14:51;17.00;57.10
80937;DHT22;70395;51.382;7.074;2024-02-16T08:17:16;17.00;56.80
80937;DHT22;70395;51.382;7.074;2024-02-16T08:19:42;17.00;56.70
80937;DHT22;70395;51.382;7.074;2024-02-16T08:22:08;17.10;56.70
80937;DHT22;70395;51.382;7.074;2024-02-16T08:24:35;17.10;56.50
80937;DHT22;70395;51.382;7.074;2024-02-16T08:27:01;17.20;56.70
80937;DHT22;70395;51.382;7.074;2024-02-16T08:29:29;17.20;56.40
80937;DHT22;70395;51.382;7.074;2024-02-16T08:31:56;17.20;56.60
80937;DHT22;70395;51.382;7.074;2024-02-16T08:34:22;17.20;56.40
80937;DHT22;70395;51.382;7.074;2024-02-16T08:36:48;17.30;56.30
80937;DHT22;70395;51.382;7.074;2024-02-16T08:39:16;17.20;56.10
80937;DHT22;70395;51.382;7.074;2024-02-16T08:41:42;17.20;56.20
80937;DHT22;70395;51.382;7.074;2024-02-16T08:44:13;17.20;56.40
80937;DHT22;70395;51.382;7.074;2024-02-16T08:46:40;17.30;56.40
80937;DHT22;70395;51.382;7.074;2024-02-16T08:49:06;17.30;56.60
80937;DHT22;70395;51.382;7.074;2024-02-16T08:51:33;17.30;56.40
80937;DHT22;70395;51.382;7.074;2024-02-16T08:53:59;17.30;56.50
80937;DHT22;70395;51.382;7.074;2024-02-16T08:56:26;17.40;56.40
80937;DHT22;70395;51.382;7.074;2024-02-16T08:58:52;17.40;56.20
80937;DHT22;70395;51.382;7.074;2024-02-16T09:01:18;17.40;56.50
80937;DHT22;70395;51.382;7.074;2024-02-16T09:03:44;17.50;56.60
80937;DHT22;70395;51.382;7.074;2024-02-16T09:06:10;17.60;56.40
80937;DHT22;70395;51.382;7.074;2024-02-16T09:08:36;17.60;56.10
80937;DHT22;70395;51.382;7.074;2024-02-16T09:11:05;17.70;56.30
80937;DHT22;70395;51.382;7.074;2024-02-16T09:13:39;17.70;56.30
80937;DHT22;70395;51.382;7.074;2024-02-16T09:16:05;17.80;56.20
80937;DHT22;70395;51.382;7.074;2024-02-16T09:18:31;17.80;56.10
80937;DHT22;70395;51.382;7.074;2024-02-16T09:20:57;17.80;56.30
80937;DHT22;70395;51.382;7.074;2024-02-16T09:23:23;17.90;56.30
80937;DHT22;70395;51.382;7.074;2024-02-16T09:25:49;17.80;56.00
80937;DHT22;70395;51.382;7.074;2024-02-16T09:28:16;17.90;55.90
80937;DHT22;70395;51.382;7.074;2024-02-16T09:30:44;17.90;56.20
80937;DHT22;70395;51.382;7.074;2024-02-16T09:33:10;17.90;55.90
80937;DHT22;70395;51.382;7.074;2024-02-16T09:35:36;17.90;56.20
80937;DHT22;70395;51.382;7.074;2024-02-16T09:38:02;18.00;56.70
80937;DHT22;70395;51.382;7.074;2024-02-16T09:40:28;18.00;56.10
80937;DHT22;70395;51.382;7.074;2024-02-16T09:42:54;18.00;56.00
80937;DHT22;70395;51.382;7.074;2024-02-16T09:45:20;18.00;55.80
80937;DHT22;70395;51.382;7.074;2024-02-16T09:47:50;18.00;56.10
80937;DHT22;70395;51.382;7.074;2024-02-16T09:50:17;18.00;56.10
80937;DHT22;70395;51.382;7.074;2024-02-16T09:52:47;18.10;56.20
80937;DHT22;70395;51.382;7.074;2024-02-16T09:55:15;18.10;56.00
80937;DHT22;70395;51.382;7.074;2024-02-16T09:57:43;18.10;56.00
80937;DHT22;70395;51.382;7.074;2024-02-16T10:00:10;18.10;56.00
80937;DHT22;70395;51.382;7.074;2024-02-16T10:02:43;18.20;56.30
80937;DHT22;70395;51.382;7.074;2024-02-16T10:05:21;18.20;56.10
80937;DHT22;70395;51.382;7.074;2024-02-16T10:07:47;18.30;56.40
80937;DHT22;70395;51.382;7.074;2024-02-16T10:10:23;18.40;56.10
80937;DHT22;70395;51.382;7.074;2024-02-16T10:13:00;18.40;56.00
80937;DHT22;70395;51.382;7.074;2024-02-16T10:15:34;18.40;55.90
80937;DHT22;70395;51.382;7.074;2024-02-16T10:18:01;18.40;55.70
80937;DHT22;70395;51.382;7.074;2024-02-16T10:20:29;18.40;55.70
80937;DHT22;70395;51.382;7.074;2024-02-16T10:23:11;18.40;55.80
80937;DHT22;70395;51.382;7.074;2024-02-16T10:25:40;18.40;56.00
80937;DHT22;70395;51.382;7.074;2024-02-16T10:28:10;18.40;55.90
80937;DHT22;70395;51.382;7.074;2024-02-16T10:30:43;18.40;56.00
80937;DHT22;70395;51.382;7.074;2024-02-16T10:33:11;18.40;56.10
80937;DHT22;70395;51.382;7.074;2024-02-16T10:35:41;18.40;56.20
80937;DHT22;70395;51.382;7.074;2024-02-16T10:38:08;18.40;56.30
80937;DHT22;70395;51.382;7.074;2024-02-16T10:40:40;18.50;56.60
80937;DHT22;70395;51.382;7.074;2024-02-16T10:43:08;18.50;56.50
80937;DHT22;70395;51.382;7.074;2024-02-16T10:45:36;18.60;56.70
80937;DHT22;70395;51.382;7.074;2024-02-16T10:48:04;18.70;56.70
80937;DHT22;70395;51.382;7.074;2024-02-16T10:50:33;18.80;56.50
80937;DHT22;70395;51.382;7.074;2024-02-16T10:53:05;18.90;56.50
80937;DHT22;70395;51.382;7.074;2024-02-16T10:56:00;18.90;56.40
80937;DHT22;70395;51.382;7.074;2024-02-16T10:58:27;19.00;56.00
80937;DHT22;70395;51.382;7.074;2024-02-16T11:00:57;19.10;56.00
80937;DHT22;70395;51.382;7.074;2024-02-16T11:03:27;19.10;56.00
80937;DHT22;70395;51.382;7.074;2024-02-16T11:05:54;19.10;55.80
80937;DHT22;70395;51.382;7.074;2024-02-16T11:08:23;19.10;55.80
80937;DHT22;70395;51.382;7.074;2024-02-16T11:13:26;19.10;56.10
80937;DHT22;70395;51.382;7.074;2024-02-16T11:16:06;19.00;55.90
80937;DHT22;70395;51.382;7.074;2024-02-16T11:18:41;18.90;56.00
80937;DHT22;70395;51.382;7.074;2024-02-16T11:21:16;18.90;56.20
80937;DHT22;70395;51.382;7.074;2024-02-16T11:23:42;18.90;56.30
80937;DHT22;70395;51.382;7.074;2024-02-16T11:26:11;18.80;56.40
80937;DHT22;70395;51.382;7.074;2024-02-16T11:28:41;18.80;56.50
80937;DHT22;70395;51.382;7.074;2024-02-16T11:31:08;18.70;56.70
80937;DHT22;70395;51.382;7.074;2024-02-16T11:33:34;18.70;56.90
80937;DHT22;70395;51.382;7.074;2024-02-16T11:36:05;18.60;57.00
80937;DHT22;70395;51.382;7.074;2024-02-16T11:38:34;18.60;57.20
80937;DHT22;70395;51.382;7.074;2024-02-16T11:41:03;18.50;57.20
80937;DHT22;70395;51.382;7.074;2024-02-16T11:43:35;18.50;57.50
80937;DHT22;70395;51.382;7.074;2024-02-16T11:46:11;18.40;57.60
80937;DHT22;70395;51.382;7.074;2024-02-16T11:48:38;18.30;57.80
80937;DHT22;70395;51.382;7.074;2024-02-16T11:51:04;18.30;57.90
80937;DHT22;70395;51.382;7.074;2024-02-16T11:53:31;18.30;58.10
80937;DHT22;70395;51.382;7.074;2024-02-16T11:55:58;18.20;58.10
80937;DHT22;70395;51.382;7.074;2024-02-16T11:58:24;18.20;58.10
80937;DHT22;70395;51.382;7.074;2024-02-16T12:00:51;18.20;58.10
80937;DHT22;70395;51.382;7.074;2024-02-16T12:03:21;18.20;58.10
80937;DHT22;70395;51.382;7.074;2024-02-16T12:08:21;18.20;58.30
80937;DHT22;70395;51.382;7.074;2024-02-16T12:10:48;18.10;58.20
80937;DHT22;70395;51.382;7.074;2024-02-16T12:13:19;18.10;58.30
80937;DHT22;70395;51.382;7.074;2024-02-16T12:15:47;18.10;58.20
80937;DHT22;70395;51.382;7.074;2024-02-16T12:18:26;18.10;58.40
80937;DHT22;70395;51.382;7.074;2024-02-16T12:21:02;18.10;58.50
80937;DHT22;70395;51.382;7.074;2024-02-16T12:23:31;18.10;58.60
80937;DHT22;70395;51.382;7.074;2024-02-16T12:25:59;18.00;58.50
80937;DHT22;70395;51.382;7.074;2024-02-16T12:28:27;18.00;58.50
80937;DHT22;70395;51.382;7.074;2024-02-16T12:30:55;18.00;58.40
80937;DHT22;70395;51.382;7.074;2024-02-16T12:33:25;17.90;58.30
80937;DHT22;70395;51.382;7.074;2024-02-16T12:35:51;17.90;58.30
80937;DHT22;70395;51.382;7.074;2024-02-16T12:38:17;17.90;58.30
80937;DHT22;70395;51.382;7.074;2024-02-16T12:40:48;17.90;58.50
80937;DHT22;70395;51.382;7.074;2024-02-16T12:43:14;17.80;58.50
80937;DHT22;70395;51.382;7.074;2024-02-16T12:45:41;17.80;58.60
80937;DHT22;70395;51.382;7.074;2024-02-16T12:48:07;17.80;58.90
80937;DHT22;70395;51.382;7.074;2024-02-16T12:50:38;17.80;58.90
80937;DHT22;70395;51.382;7.074;2024-02-16T12:53:05;17.70;59.00
80937;DHT22;70395;51.382;7.074;2024-02-16T12:55:31;17.70;59.10
80937;DHT22;70395;51.382;7.074;2024-02-16T12:57:57;17.60;59.20
80937;DHT22;70395;51.382;7.074;2024-02-16T13:00:23;17.60;59.30
80937;DHT22;70395;51.382;7.074;2024-02-16T13:02:49;17.60;59.50
80937;DHT22;70395;51.382;7.074;2024-02-16T13:05:14;17.50;59.80
80937;DHT22;70395;51.382;7.074;2024-02-16T13:07:41;17.50;59.80
80937;DHT22;70395;51.382;7.074;2024-02-16T13:10:08;17.50;60.20
80937;DHT22;70395;51.382;7.074;2024-02-16T13:12:34;17.40;60.80
80937;DHT22;70395;51.382;7.074;2024-02-16T13:15:02;17.40;61.30
80937;DHT22;70395;51.382;7.074;2024-02-16T13:17:30;17.30;61.40
80937;DHT22;70395;51.382;7.074;2024-02-16T13:19:56;17.30;62.20
80937;DHT22;70395;51.382;7.074;2024-02-16T13:22:35;17.30;62.90
80937;DHT22;70395;51.382;7.074;2024-02-16T13:25:05;17.30;63.00
80937;DHT22;70395;51.382;7.074;2024-02-16T13:27:32;17.30;64.20
80937;DHT22;70395;51.382;7.074;2024-02-16T13:29:59;17.20;64.70
80937;DHT22;70395;51.382;7.074;2024-02-16T13:32:26;17.20;65.40
80937;DHT22;70395;51.382;7.074;2024-02-16T13:34:52;17.10;65.30
80937;DHT22;70395;51.382;7.074;2024-02-16T13:37:18;17.00;65.40
80937;DHT22;70395;51.382;7.074;2024-02-16T13:39:44;17.10;65.40
80937;DHT22;70395;51.382;7.074;2024-02-16T13:42:11;17.10;65.50
80937;DHT22;70395;51.382;7.074;2024-02-16T13:44:38;17.00;66.50
80937;DHT22;70395;51.382;7.074;2024-02-16T13:47:06;17.00;67.00
80937;DHT22;70395;51.382;7.074;2024-02-16T13:49:32;17.00;66.90
80937;DHT22;70395;51.382;7.074;2024-02-16T13:51:57;17.00;67.50
80937;DHT22;70395;51.382;7.074;2024-02-16T13:54:27;16.90;67.20
80937;DHT22;70395;51.382;7.074;2024-02-16T13:56:53;16.90;68.30
80937;DHT22;70395;51.382;7.074;2024-02-16T13:59:19;16.80;68.20
80937;DHT22;70395;51.382;7.074;2024-02-16T14:01:46;16.80;68.30
80937;DHT22;70395;51.382;7.074;2024-02-16T14:04:13;16.70;68.70
80937;DHT22;70395;51.382;7.074;2024-02-16T14:06:40;16.70;69.10
80937;DHT22;70395;51.382;7.074;2024-02-16T14:09:06;16.60;69.10
80937;DHT22;70395;51.382;7.074;2024-02-16T14:11:35;16.60;69.40
80937;DHT22;70395;51.382;7.074;2024-02-16T14:14:01;16.60;70.20
80937;DHT22;70395;51.382;7.074;2024-02-16T14:16:27;16.50;70.00
80937;DHT22;70395;51.382;7.074;2024-02-16T14:18:53;16.50;70.10
80937;DHT22;70395;51.382;7.074;2024-02-16T14:21:19;16.50;70.60
80937;DHT22;70395;51.382;7.074;2024-02-16T14:23:45;16.50;70.40
80937;DHT22;70395;51.382;7.074;2024-02-16T14:26:11;16.40;70.30
80937;DHT22;70395;51.382;7.074;2024-02-16T14:28:37;16.40;70.50
80937;DHT22;70395;51.382;7.074;2024-02-16T14:31:03;16.40;70.90
80937;DHT22;70395;51.382;7.074;2024-02-16T14:33:29;16.40;71.20
80937;DHT22;70395;51.382;7.074;2024-02-16T14:35:54;16.30;71.70
80937;DHT22;70395;51.382;7.074;2024-02-16T14:38:20;16.30;71.80
80937;DHT22;70395;51.382;7.074;2024-02-16T14:40:47;16.30;72.00
80937;DHT22;70395;51.382;7.074;2024-02-16T14:43:13;16.20;72.10
80937;DHT22;70395;51.382;7.074;2024-02-16T14:45:39;16.20;72.40
80937;DHT22;70395;51.382;7.074;2024-02-16T14:48:05;16.20;72.10
80937;DHT22;70395;51.382;7.074;2024-02-16T14:50:31;16.20;72.60
80937;DHT22;70395;51.382;7.074;2024-02-16T14:52:57;16.20;72.70
80937;DHT22;70395;51.382;7.074;2024-02-16T14:55:23;16.20;72.80
80937;DHT22;70395;51.382;7.074;2024-02-16T14:57:49;16.10;72.90
80937;DHT22;70395;51.382;7.074;2024-02-16T15:00:15;16.10;73.00
80937;DHT22;70395;51.382;7.074;2024-02-16T15:02:41;16.10;72.90
80937;DHT22;70395;51.382;7.074;2024-02-16T15:05:08;16.00;73.10
80937;DHT22;70395;51.382;7.074;2024-02-16T15:07:34;16.10;73.00
80937;DHT22;70395;51.382;7.074;2024-02-16T15:10:01;16.00;72.90
80937;DHT22;70395;51.382;7.074;2024-02-16T15:12:28;16.00;72.90
80937;DHT22;70395;51.382;7.074;2024-02-16T15:14:54;16.00;73.10
80937;DHT22;70395;51.382;7.074;2024-02-16T15:17:20;16.00;73.30
80937;DHT22;70395;51.382;7.074;2024-02-16T15:19:47;16.00;73.20
80937;DHT22;70395;51.382;7.074;2024-02-16T15:22:13;16.00;73.40
80937;DHT22;70395;51.382;7.074;2024-02-16T15:24:39;16.00;73.30
80937;DHT22;70395;51.382;7.074;2024-02-16T15:27:05;15.90;73.10
80937;DHT22;70395;51.382;7.074;2024-02-16T15:29:32;15.90;73.30
80937;DHT22;70395;51.382;7.074;2024-02-16T15:31:59;15.90;73.20
80937;DHT22;70395;51.382;7.074;2024-02-16T15:34:28;15.90;73.80